createdAt,value
2023-04-16T00:01:02.970Z,10.52
2023-04-16T00:03:31.158Z,10.54
2023-04-16T00:05:59.388Z,10.55
2023-04-16T00:08:27.615Z,10.59
2023-04-16T00:10:57.291Z,10.62
2023-04-16T00:13:26.234Z,10.63
2023-04-16T00:15:54.292Z,10.58
2023-04-16T00:18:22.387Z,10.48
2023-04-16T00:20:50.793Z,10.37
2023-04-16T00:23:19.069Z,10.32
2023-04-16T00:25:47.181Z,10.31
2023-04-16T00:28:16.610Z,10.29
2023-04-16T00:30:44.774Z,10.28
2023-04-16T00:33:12.930Z,10.26
2023-04-16T00:35:41.190Z,10.26
2023-04-16T00:38:09.402Z,10.31
2023-04-16T00:40:37.523Z,10.39
2023-04-16T00:43:06.698Z,10.47
2023-04-16T00:45:36.391Z,10.55
2023-04-16T00:48:05.068Z,10.56
2023-04-16T00:50:33.100Z,10.59
2023-04-16T00:53:01.754Z,10.62
2023-04-16T00:55:30.058Z,10.67
2023-04-16T00:57:58.175Z,10.72
2023-04-16T01:00:27.008Z,10.76
2023-04-16T01:02:57.161Z,10.80
2023-04-16T01:05:25.386Z,10.82
2023-04-16T01:07:53.520Z,10.82
2023-04-16T01:10:21.725Z,10.80
2023-04-16T01:12:49.767Z,10.81
2023-04-16T01:15:17.957Z,10.77
2023-04-16T01:17:47.390Z,10.74
2023-04-16T01:20:17.004Z,10.70
2023-04-16T01:22:46.416Z,10.69
2023-04-16T01:25:16.836Z,10.71
2023-04-16T01:27:44.892Z,10.73
2023-04-16T01:30:13.295Z,10.72
2023-04-16T01:32:41.382Z,10.68
2023-04-16T01:35:09.520Z,10.63
2023-04-16T01:37:37.548Z,10.55
2023-04-16T01:40:08.107Z,10.50
2023-04-16T01:42:36.197Z,10.48
2023-04-16T01:45:04.468Z,10.49
2023-04-16T01:47:32.665Z,10.52
2023-04-16T01:50:01.154Z,10.52
2023-04-16T01:52:29.239Z,10.48
2023-04-16T01:54:57.343Z,10.49
2023-04-16T01:57:26.784Z,10.55
2023-04-16T01:59:54.856Z,10.58
2023-04-16T02:02:28.189Z,10.62
2023-04-16T02:04:57.527Z,10.62
2023-04-16T02:07:27.428Z,10.56
2023-04-16T02:09:55.854Z,10.55
2023-04-16T02:12:23.877Z,10.55
2023-04-16T02:14:53.531Z,10.49
2023-04-16T02:17:21.838Z,10.49
2023-04-16T02:19:49.828Z,10.58
2023-04-16T02:22:17.902Z,10.63
2023-04-16T02:24:45.999Z,10.68
2023-04-16T02:27:14.012Z,10.70
2023-04-16T02:29:42.329Z,10.72
2023-04-16T02:32:11.936Z,10.76
2023-04-16T02:34:40.504Z,10.78
2023-04-16T02:37:08.524Z,10.79
2023-04-16T02:39:36.642Z,10.80
2023-04-16T02:42:04.906Z,10.78
2023-04-16T02:44:32.899Z,10.77
2023-04-16T02:47:00.860Z,10.72
2023-04-16T02:49:30.335Z,10.64
2023-04-16T02:51:58.354Z,10.58
2023-04-16T02:54:26.454Z,10.55
2023-04-16T02:56:54.487Z,10.58
2023-04-16T02:59:22.567Z,10.64
2023-04-16T03:01:50.708Z,10.68
2023-04-16T03:04:18.887Z,10.68
2023-04-16T03:06:48.290Z,10.66
2023-04-16T03:09:16.308Z,10.59
2023-04-16T03:11:44.373Z,10.55
2023-04-16T03:14:12.534Z,10.53
2023-04-16T03:16:40.625Z,10.53
2023-04-16T03:19:08.830Z,10.51
2023-04-16T03:21:37.161Z,10.47
2023-04-16T03:24:06.683Z,10.48
2023-04-16T03:26:34.674Z,10.50
2023-04-16T03:29:03.327Z,10.56
2023-04-16T03:31:31.713Z,10.61
2023-04-16T03:33:59.856Z,10.63
2023-04-16T03:36:28.247Z,10.67
2023-04-16T03:38:56.246Z,10.68
2023-04-16T03:41:25.766Z,10.70
2023-04-16T03:43:53.815Z,10.70
2023-04-16T03:46:21.962Z,10.73
2023-04-16T03:48:49.988Z,10.76
2023-04-16T03:51:17.938Z,10.78
2023-04-16T03:53:46.028Z,10.76
2023-04-16T03:56:14.006Z,10.75
2023-04-16T03:58:43.497Z,10.74
2023-04-16T04:01:11.505Z,10.70
2023-04-16T04:03:39.680Z,10.63
2023-04-16T04:06:08.821Z,10.50
2023-04-16T04:08:36.955Z,10.40
2023-04-16T04:11:05.139Z,10.38
2023-04-16T04:13:33.241Z,10.36
2023-04-16T04:16:02.774Z,10.35
2023-04-16T04:18:30.815Z,10.31
2023-04-16T04:20:58.898Z,10.29
2023-04-16T04:23:26.927Z,10.28
2023-04-16T04:25:54.987Z,10.25
2023-04-16T04:28:23.118Z,10.26
2023-04-16T04:30:51.188Z,10.26
2023-04-16T04:33:20.657Z,10.28
2023-04-16T04:35:48.735Z,10.30
2023-04-16T04:38:19.976Z,10.32
2023-04-16T04:40:48.076Z,10.31
2023-04-16T04:43:16.209Z,10.33
2023-04-16T04:45:44.389Z,10.37
2023-04-16T04:48:12.466Z,10.36
2023-04-16T04:50:42.187Z,10.40
2023-04-16T04:53:11.201Z,10.44
2023-04-16T04:55:39.573Z,10.45
2023-04-16T04:58:08.691Z,10.48
2023-04-16T05:00:37.749Z,10.48
2023-04-16T05:03:08.253Z,10.47
2023-04-16T05:05:36.427Z,10.48
2023-04-16T05:08:06.628Z,10.49
2023-04-16T05:10:34.725Z,10.51
2023-04-16T05:13:02.722Z,10.50
2023-04-16T05:15:30.786Z,10.50
2023-04-16T05:17:58.807Z,10.47
2023-04-16T05:20:26.923Z,10.47
2023-04-16T05:22:55.537Z,10.49
2023-04-16T05:25:25.126Z,10.54
2023-04-16T05:27:53.193Z,10.51
2023-04-16T05:30:21.330Z,10.48
2023-04-16T05:32:49.395Z,10.45
2023-04-16T05:35:17.834Z,10.44
2023-04-16T05:37:45.910Z,10.45
2023-04-16T05:40:15.322Z,10.49
2023-04-16T05:42:44.698Z,10.53
2023-04-16T05:45:13.197Z,10.56
2023-04-16T05:47:41.292Z,10.56
2023-04-16T05:50:09.811Z,10.52
2023-04-16T05:52:37.911Z,10.50
2023-04-16T05:55:07.269Z,10.51
2023-04-16T05:57:35.449Z,10.54
2023-04-16T06:00:05.496Z,10.59
2023-04-16T06:02:33.870Z,10.56
2023-04-16T06:05:02.185Z,10.58
2023-04-16T06:07:30.601Z,10.57
2023-04-16T06:09:58.652Z,10.58
2023-04-16T06:12:27.261Z,10.58
2023-04-16T06:14:55.332Z,10.57
2023-04-16T06:17:24.955Z,10.59
2023-04-16T06:19:53.009Z,10.63
2023-04-16T06:22:21.194Z,10.65
2023-04-16T06:24:49.358Z,10.67
2023-04-16T06:27:17.653Z,10.70
2023-04-16T06:29:45.742Z,10.72
2023-04-16T06:32:13.862Z,10.80
2023-04-16T06:34:43.319Z,10.92
2023-04-16T06:37:11.450Z,10.98
2023-04-16T06:39:39.439Z,11.12
2023-04-16T06:42:07.489Z,11.26
2023-04-16T06:44:36.522Z,11.37
2023-04-16T06:47:04.721Z,11.51
2023-04-16T06:49:32.817Z,11.65
2023-04-16T06:52:04.505Z,11.76
2023-04-16T06:54:33.906Z,11.95
2023-04-16T06:57:02.071Z,12.13
2023-04-16T06:59:30.201Z,12.33
2023-04-16T07:01:58.367Z,12.37
2023-04-16T07:04:26.611Z,12.36
2023-04-16T07:06:54.625Z,12.20
2023-04-16T07:09:24.074Z,12.13
2023-04-16T07:11:52.182Z,12.10
2023-04-16T07:14:20.265Z,12.19
2023-04-16T07:16:48.298Z,12.23
2023-04-16T07:19:16.411Z,12.36
2023-04-16T07:21:44.637Z,12.45
2023-04-16T07:24:12.710Z,13.03
2023-04-16T07:26:42.267Z,13.49
2023-04-16T07:29:10.492Z,13.73
2023-04-16T07:31:38.788Z,13.76
2023-04-16T07:34:06.910Z,13.86
2023-04-16T07:36:34.923Z,14.00
2023-04-16T07:39:03.136Z,14.21
2023-04-16T07:41:31.233Z,14.04
2023-04-16T07:44:01.238Z,13.97
2023-04-16T07:46:39.380Z,13.96
2023-04-16T07:49:14.142Z,13.88
2023-04-16T07:51:42.259Z,13.70
2023-04-16T07:54:10.357Z,13.56
2023-04-16T07:56:38.462Z,13.40
2023-04-16T07:59:19.205Z,13.11
2023-04-16T08:01:51.013Z,12.77
2023-04-16T08:04:24.769Z,12.48
2023-04-16T08:06:53.686Z,12.37
2023-04-16T08:09:22.320Z,12.34
2023-04-16T08:11:50.962Z,12.42
2023-04-16T08:14:20.548Z,12.53
2023-04-16T08:16:48.662Z,12.61
2023-04-16T08:19:16.776Z,12.73
2023-04-16T08:21:45.025Z,12.89
2023-04-16T08:24:13.106Z,13.13
2023-04-16T08:26:41.334Z,13.12
2023-04-16T08:29:09.756Z,13.17
2023-04-16T08:31:39.574Z,13.36
2023-04-16T08:34:07.840Z,13.54
2023-04-16T08:36:35.825Z,13.67
2023-04-16T08:39:03.983Z,13.76
2023-04-16T08:41:33.583Z,13.86
2023-04-16T08:44:08.846Z,13.74
2023-04-16T08:46:41.891Z,13.49
2023-04-16T08:49:10.697Z,13.35
2023-04-16T08:51:43.581Z,13.33
2023-04-16T08:54:16.251Z,13.29
2023-04-16T08:56:44.917Z,13.46
2023-04-16T08:59:13.208Z,13.63
2023-04-16T09:01:43.491Z,13.86
2023-04-16T09:04:12.104Z,14.02
2023-04-16T09:06:42.021Z,14.21
2023-04-16T09:09:11.751Z,14.52
2023-04-16T09:11:40.551Z,15.42
2023-04-16T09:14:11.346Z,16.22
2023-04-16T09:16:41.078Z,16.74
2023-04-16T09:19:11.278Z,17.08
2023-04-16T09:21:41.042Z,17.32
2023-04-16T09:24:10.245Z,17.32
2023-04-16T09:26:38.698Z,17.29
2023-04-16T09:29:06.868Z,17.25
2023-04-16T09:31:35.083Z,17.13
2023-04-16T09:34:05.515Z,16.91
2023-04-16T09:36:35.881Z,16.71
2023-04-16T09:39:04.965Z,16.47
2023-04-16T09:41:36.069Z,16.24
2023-04-16T09:44:06.084Z,16.04
2023-04-16T09:46:36.492Z,15.79
2023-04-16T09:49:10.077Z,15.59
2023-04-16T09:51:42.088Z,15.45
2023-04-16T09:54:11.791Z,15.33
2023-04-16T09:56:42.698Z,15.26
2023-04-16T09:59:17.861Z,15.22
2023-04-16T10:01:47.223Z,15.17
2023-04-16T10:04:15.689Z,15.15
2023-04-16T10:06:48.568Z,15.13
2023-04-16T10:09:16.663Z,15.09
2023-04-16T10:11:44.776Z,15.03
2023-04-16T10:14:13.032Z,15.05
2023-04-16T10:16:41.824Z,15.08
2023-04-16T10:19:10.423Z,15.11
2023-04-16T10:21:38.930Z,15.13
2023-04-16T10:24:09.838Z,15.13
2023-04-16T10:26:38.478Z,15.12
2023-04-16T10:29:08.940Z,15.15
2023-04-16T10:31:39.924Z,15.16
2023-04-16T10:34:10.639Z,15.22
2023-04-16T10:36:40.065Z,15.23
2023-04-16T10:39:17.361Z,15.27
2023-04-16T10:41:46.896Z,15.27
2023-04-16T10:44:21.190Z,15.23
2023-04-16T10:47:12.822Z,15.17
2023-04-16T10:49:42.669Z,15.23
2023-04-16T10:52:13.874Z,15.28
2023-04-16T10:54:44.194Z,15.35
2023-04-16T10:57:18.022Z,15.50
2023-04-16T10:59:47.604Z,15.66
2023-04-16T11:02:18.519Z,15.87
2023-04-16T11:04:48.062Z,16.11
2023-04-16T11:07:19.504Z,16.21
2023-04-16T11:09:54.598Z,16.23
2023-04-16T11:12:24.179Z,16.27
2023-04-16T11:14:53.754Z,16.25
2023-04-16T11:17:24.355Z,16.36
2023-04-16T11:19:55.737Z,16.44
2023-04-16T11:22:29.864Z,16.55
2023-04-16T11:25:06.892Z,16.69
2023-04-16T11:27:40.734Z,16.83
2023-04-16T11:30:15.555Z,16.94
2023-04-16T11:32:49.193Z,17.10
2023-04-16T11:35:23.405Z,17.34
2023-04-16T11:38:03.149Z,17.57
2023-04-16T11:40:38.963Z,17.71
2023-04-16T11:43:15.838Z,17.76
2023-04-16T11:45:58.784Z,17.65
2023-04-16T11:48:27.452Z,17.58
2023-04-16T11:50:59.147Z,17.63
2023-04-16T11:53:27.363Z,17.75
2023-04-16T11:55:57.328Z,17.86
2023-04-16T11:58:25.448Z,17.87
2023-04-16T12:00:56.940Z,17.84
2023-04-16T12:03:39.765Z,17.84
2023-04-16T12:06:11.926Z,17.83
2023-04-16T12:08:40.048Z,17.91
2023-04-16T12:11:09.827Z,17.94
2023-04-16T12:13:40.316Z,17.97
2023-04-16T12:16:21.872Z,18.08
2023-04-16T12:19:04.031Z,18.10
2023-04-16T12:21:39.842Z,18.07
2023-04-16T12:24:09.452Z,18.12
2023-04-16T12:26:43.308Z,18.13
2023-04-16T12:31:48.290Z,17.95
2023-04-16T12:34:17.499Z,17.82
2023-04-16T12:36:46.767Z,17.79
2023-04-16T12:39:17.233Z,17.76
2023-04-16T12:41:47.978Z,17.78
2023-04-16T12:44:18.571Z,17.78
2023-04-16T12:46:46.938Z,17.88
2023-04-16T12:49:15.141Z,18.00
2023-04-16T12:51:43.716Z,18.03
2023-04-16T12:54:12.095Z,18.02
2023-04-16T12:56:40.238Z,18.02
2023-04-16T12:59:10.644Z,17.93
2023-04-16T13:01:39.058Z,17.77
2023-04-16T13:04:07.764Z,17.63
2023-04-16T13:06:37.767Z,17.55
2023-04-16T13:09:06.033Z,17.52
2023-04-16T13:11:34.321Z,17.43
2023-04-16T13:14:02.516Z,17.32
2023-04-16T13:16:32.384Z,17.29
2023-04-16T13:19:00.433Z,17.32
2023-04-16T13:21:28.674Z,17.37
2023-04-16T13:23:56.784Z,17.45
2023-04-16T13:26:24.830Z,17.51
2023-04-16T13:28:53.082Z,17.51
2023-04-16T13:31:22.234Z,17.48
2023-04-16T13:33:52.837Z,17.52
2023-04-16T13:36:20.873Z,17.59
2023-04-16T13:38:49.040Z,17.63
2023-04-16T13:41:17.045Z,17.69
2023-04-16T13:43:45.143Z,17.73
2023-04-16T13:46:13.504Z,17.78
2023-04-16T13:48:41.736Z,17.80
2023-04-16T13:51:11.214Z,17.83
2023-04-16T13:53:39.227Z,17.84
2023-04-16T13:56:07.422Z,17.83
2023-04-16T13:58:35.627Z,17.88
2023-04-16T14:01:03.855Z,17.98
2023-04-16T14:03:35.962Z,18.15
2023-04-16T14:06:04.191Z,18.26
2023-04-16T14:08:33.787Z,18.24
2023-04-16T14:11:02.561Z,18.24
2023-04-16T14:13:30.685Z,18.24
2023-04-16T14:15:58.826Z,18.26
2023-04-16T14:18:26.926Z,18.26
2023-04-16T14:20:55.058Z,18.26
2023-04-16T14:23:23.155Z,18.32
2023-04-16T14:25:53.087Z,18.33
2023-04-16T14:28:21.687Z,18.28
2023-04-16T14:30:49.841Z,18.26
2023-04-16T14:33:17.996Z,18.14
2023-04-16T14:35:46.200Z,18.01
2023-04-16T14:38:14.368Z,17.94
2023-04-16T14:40:42.589Z,17.93
2023-04-16T14:43:12.099Z,17.96
2023-04-16T14:45:40.628Z,17.97
2023-04-16T14:48:09.116Z,18.00
2023-04-16T14:50:38.446Z,17.96
2023-04-16T14:53:06.942Z,17.96
2023-04-16T14:55:35.634Z,17.97
2023-04-16T14:58:04.368Z,18.01
2023-04-16T15:00:35.837Z,18.09
2023-04-16T15:03:04.907Z,18.21
2023-04-16T15:05:33.288Z,18.17
2023-04-16T15:08:01.735Z,17.97
2023-04-16T15:10:29.811Z,17.74
2023-04-16T15:12:57.966Z,17.49
2023-04-16T15:15:26.117Z,17.30
2023-04-16T15:17:57.175Z,17.17
2023-04-16T15:20:25.377Z,17.01
2023-04-16T15:22:54.719Z,16.93
2023-04-16T15:25:23.574Z,16.91
2023-04-16T15:27:51.622Z,16.94
2023-04-16T15:30:20.272Z,16.88
2023-04-16T15:32:48.726Z,16.80
2023-04-16T15:35:18.348Z,16.71
2023-04-16T15:37:46.520Z,16.63
2023-04-16T15:40:16.059Z,16.58
2023-04-16T15:42:44.671Z,16.59
2023-04-16T15:45:12.803Z,16.57
2023-04-16T15:47:41.992Z,16.58
2023-04-16T15:50:10.359Z,16.49
2023-04-16T15:52:40.333Z,16.43
2023-04-16T15:55:08.816Z,16.39
2023-04-16T15:57:37.231Z,16.31
2023-04-16T16:00:13.500Z,16.23
2023-04-16T16:02:42.085Z,16.14
2023-04-16T16:05:11.980Z,16.00
2023-04-16T16:07:42.042Z,15.92
2023-04-16T16:10:11.303Z,15.88
2023-04-16T16:12:39.486Z,15.79
2023-04-16T16:15:09.253Z,15.69
2023-04-16T16:17:37.592Z,15.60
2023-04-16T16:20:09.600Z,15.51
2023-04-16T16:22:38.214Z,15.43
2023-04-16T16:25:10.154Z,15.35
2023-04-16T16:27:38.311Z,15.27
2023-04-16T16:30:07.746Z,15.21
2023-04-16T16:32:36.162Z,15.12
2023-04-16T16:35:04.451Z,15.06
2023-04-16T16:37:33.137Z,14.98
2023-04-16T16:40:01.312Z,14.91
2023-04-16T16:42:30.764Z,14.85
2023-04-16T16:44:58.829Z,14.83
2023-04-16T16:47:27.078Z,14.71
2023-04-16T16:49:55.237Z,14.65
2023-04-16T16:52:24.510Z,14.66
2023-04-16T16:54:53.900Z,14.64
2023-04-16T16:57:21.984Z,14.62
2023-04-16T16:59:51.758Z,14.60
2023-04-16T17:02:19.980Z,14.60
2023-04-16T17:04:48.114Z,14.53
2023-04-16T17:07:16.178Z,14.48
2023-04-16T17:09:44.384Z,14.43
2023-04-16T17:12:12.450Z,14.34
2023-04-16T17:14:40.787Z,14.27
2023-04-16T17:17:10.277Z,14.23
2023-04-16T17:19:38.367Z,14.19
2023-04-16T17:22:06.514Z,14.19
2023-04-16T17:24:34.644Z,14.15
2023-04-16T17:27:03.393Z,14.10
2023-04-16T17:29:31.555Z,14.05
2023-04-16T17:31:59.819Z,13.98
2023-04-16T17:34:29.476Z,13.95
2023-04-16T17:36:57.627Z,13.91
2023-04-16T17:39:25.770Z,13.89
2023-04-16T17:41:57.364Z,13.87
2023-04-16T17:44:25.894Z,13.84
2023-04-16T17:46:53.907Z,13.81
2023-04-16T17:49:22.018Z,13.73
2023-04-16T17:51:51.486Z,13.67
2023-04-16T17:54:19.551Z,13.61
2023-04-16T17:56:47.708Z,13.57
2023-04-16T17:59:15.779Z,13.50
2023-04-16T18:01:44.590Z,13.44
2023-04-16T18:04:13.333Z,13.39
2023-04-16T18:06:41.737Z,13.34
2023-04-16T18:09:12.190Z,13.27
2023-04-16T18:11:40.426Z,13.23
2023-04-16T18:14:10.138Z,13.21
2023-04-16T18:16:38.457Z,13.14
2023-04-16T18:19:06.660Z,13.10
2023-04-16T18:21:35.568Z,13.01
2023-04-16T18:24:03.676Z,12.99
2023-04-16T18:26:35.698Z,12.98
2023-04-16T18:29:04.257Z,12.98
2023-04-16T18:31:32.411Z,12.99
2023-04-16T18:34:00.598Z,13.00
2023-04-16T18:36:28.769Z,13.00
2023-04-16T18:39:01.558Z,12.98
2023-04-16T18:41:32.217Z,12.97
2023-04-16T18:44:00.506Z,12.96
2023-04-16T18:46:28.602Z,12.95
2023-04-16T18:48:56.699Z,12.94
2023-04-16T18:51:25.101Z,12.92
2023-04-16T18:53:53.162Z,12.87
2023-04-16T18:56:21.793Z,12.84
2023-04-16T18:58:51.260Z,12.82
2023-04-16T19:01:19.324Z,12.78
2023-04-16T19:03:47.604Z,12.77
2023-04-16T19:06:15.872Z,12.77
2023-04-16T19:08:44.059Z,12.73
2023-04-16T19:11:12.092Z,12.75
2023-04-16T19:13:40.168Z,12.76
2023-04-16T19:16:11.717Z,12.76
2023-04-16T19:18:40.110Z,12.76
2023-04-16T19:21:10.163Z,12.78
2023-04-16T19:23:38.222Z,12.77
2023-04-16T19:26:06.393Z,12.77
2023-04-16T19:28:34.550Z,12.76
2023-04-16T19:31:02.639Z,12.73
2023-04-16T19:33:32.512Z,12.72
2023-04-16T19:36:01.875Z,12.69
2023-04-16T19:38:31.977Z,12.67
2023-04-16T19:41:00.175Z,12.60
2023-04-16T19:43:30.773Z,12.52
2023-04-16T19:45:59.376Z,12.51
2023-04-16T19:48:27.660Z,12.46
2023-04-16T19:50:57.256Z,12.41
2023-04-16T19:53:25.783Z,12.33
2023-04-16T19:55:53.899Z,12.26
2023-04-16T19:58:22.069Z,12.21
2023-04-16T20:00:50.339Z,12.15
2023-04-16T20:03:18.525Z,12.10
2023-04-16T20:05:49.514Z,12.07
2023-04-16T20:08:19.139Z,12.05
2023-04-16T20:10:47.445Z,12.03
2023-04-16T20:13:18.599Z,11.98
2023-04-16T20:15:47.290Z,11.97
2023-04-16T20:18:15.646Z,11.98
2023-04-16T20:20:43.717Z,11.97
2023-04-16T20:23:11.859Z,11.96
2023-04-16T20:25:43.697Z,11.95
2023-04-16T20:28:11.827Z,11.92
2023-04-16T20:30:40.073Z,11.92
2023-04-16T20:33:11.522Z,11.91
2023-04-16T20:35:40.626Z,11.88
2023-04-16T20:38:19.919Z,11.86
2023-04-16T20:40:49.654Z,11.86
2023-04-16T20:43:18.930Z,11.85
2023-04-16T20:45:50.251Z,11.78
2023-04-16T20:48:18.538Z,11.74
2023-04-16T20:50:46.977Z,11.70
2023-04-16T20:53:15.975Z,11.65
2023-04-16T20:55:44.615Z,11.62
2023-04-16T20:58:14.826Z,11.58
2023-04-16T21:00:42.926Z,11.54
2023-04-16T21:03:11.187Z,11.51
2023-04-16T21:05:39.470Z,11.49
2023-04-16T21:08:07.930Z,11.46
2023-04-16T21:10:36.110Z,11.45
2023-04-16T21:13:04.175Z,11.43
2023-04-16T21:15:34.837Z,11.40
2023-04-16T21:18:02.946Z,11.36
2023-04-16T21:20:31.081Z,11.31
2023-04-16T21:22:59.214Z,11.29
2023-04-16T21:25:27.288Z,11.29
2023-04-16T21:27:55.579Z,11.27
2023-04-16T21:30:23.986Z,11.26
2023-04-16T21:32:53.549Z,11.26
2023-04-16T21:35:21.628Z,11.27
2023-04-16T21:37:49.701Z,11.26
2023-04-16T21:40:17.857Z,11.21
2023-04-16T21:42:45.933Z,11.15
2023-04-16T21:45:14.574Z,11.10
2023-04-16T21:47:42.766Z,11.03
2023-04-16T21:50:13.475Z,10.96
2023-04-16T21:52:46.796Z,10.89
2023-04-16T21:55:15.243Z,10.89
2023-04-16T21:57:43.388Z,10.88
2023-04-16T22:00:14.278Z,10.87
2023-04-16T22:02:43.336Z,10.86
2023-04-16T22:05:13.079Z,10.82
2023-04-16T22:07:41.401Z,10.81
